sensor_id;sensor_type;location;lat;lon;timestamp;P1;durP1;ratioP1;P2;durP2;ratioP2
12869;SDS011;6503;48.572;13.460;2023-10-09T00:02:01;11.50;;;5.97;;
12869;SDS011;6503;48.572;13.460;2023-10-09T00:04:33;9.30;;;5.47;;
12869;SDS011;6503;48.572;13.460;2023-10-09T00:07:19;7.13;;;5.30;;
12869;SDS011;6503;48.572;13.460;2023-10-09T00:10:06;7.82;;;5.03;;
12869;SDS011;6503;48.572;13.460;2023-10-09T00:12:57;5.78;;;4.30;;
12869;SDS011;6503;48.572;13.460;2023-10-09T00:15:41;8.27;;;4.50;;
12869;SDS011;6503;48.572;13.460;2023-10-09T00:18:26;8.70;;;4.88;;
12869;SDS011;6503;48.572;13.460;2023-10-09T00:21:01;5.38;;;4.15;;
12869;SDS011;6503;48.572;13.460;2023-10-09T00:23:42;6.38;;;4.50;;
12869;SDS011;6503;48.572;13.460;2023-10-09T00:26:17;5.85;;;4.20;;
12869;SDS011;6503;48.572;13.460;2023-10-09T00:28:50;8.07;;;4.07;;
12869;SDS011;6503;48.572;13.460;2023-10-09T00:34:42;6.32;;;4.00;;
12869;SDS011;6503;48.572;13.460;2023-10-09T00:38:37;5.88;;;3.83;;
12869;SDS011;6503;48.572;13.460;2023-10-09T00:40:53;6.57;;;3.80;;
12869;SDS011;6503;48.572;13.460;2023-10-09T00:43:42;8.45;;;4.32;;
12869;SDS011;6503;48.572;13.460;2023-10-09T00:46:27;8.40;;;4.32;;
12869;SDS011;6503;48.572;13.460;2023-10-09T00:49:05;6.97;;;4.35;;
12869;SDS011;6503;48.572;13.460;2023-10-09T00:51:52;8.07;;;4.22;;
12869;SDS011;6503;48.572;13.460;2023-10-09T00:54:33;7.45;;;4.72;;
12869;SDS011;6503;48.572;13.460;2023-10-09T00:57:29;8.00;;;4.45;;
12869;SDS011;6503;48.572;13.460;2023-10-09T01:00:11;5.75;;;4.35;;
12869;SDS011;6503;48.572;13.460;2023-10-09T01:02:55;7.78;;;3.90;;
12869;SDS011;6503;48.572;13.460;2023-10-09T01:05:40;6.40;;;4.18;;
12869;SDS011;6503;48.572;13.460;2023-10-09T01:08:22;7.15;;;4.65;;
12869;SDS011;6503;48.572;13.460;2023-10-09T01:11:10;5.78;;;4.18;;
12869;SDS011;6503;48.572;13.460;2023-10-09T01:13:51;8.38;;;4.68;;
12869;SDS011;6503;48.572;13.460;2023-10-09T01:16:37;9.15;;;4.85;;
12869;SDS011;6503;48.572;13.460;2023-10-09T01:19:28;6.50;;;4.47;;
12869;SDS011;6503;48.572;13.460;2023-10-09T01:21:56;6.05;;;4.47;;
12869;SDS011;6503;48.572;13.460;2023-10-09T01:24:31;7.90;;;4.93;;
12869;SDS011;6503;48.572;13.460;2023-10-09T01:27:04;8.85;;;5.57;;
12869;SDS011;6503;48.572;13.460;2023-10-09T01:29:37;6.38;;;5.00;;
12869;SDS011;6503;48.572;13.460;2023-10-09T01:32:11;8.18;;;5.03;;
12869;SDS011;6503;48.572;13.460;2023-10-09T01:34:52;10.02;;;5.25;;
12869;SDS011;6503;48.572;13.460;2023-10-09T01:37:20;7.28;;;4.82;;
12869;SDS011;6503;48.572;13.460;2023-10-09T01:40:12;6.43;;;4.90;;
12869;SDS011;6503;48.572;13.460;2023-10-09T01:42:52;8.38;;;4.95;;
12869;SDS011;6503;48.572;13.460;2023-10-09T01:45:26;8.20;;;5.35;;
12869;SDS011;6503;48.572;13.460;2023-10-09T01:48:10;7.00;;;5.15;;
12869;SDS011;6503;48.572;13.460;2023-10-09T01:50:41;9.75;;;5.32;;
12869;SDS011;6503;48.572;13.460;2023-10-09T01:53:13;8.65;;;5.03;;
12869;SDS011;6503;48.572;13.460;2023-10-09T01:55:56;8.18;;;5.50;;
12869;SDS011;6503;48.572;13.460;2023-10-09T01:58:24;9.57;;;5.30;;
12869;SDS011;6503;48.572;13.460;2023-10-09T02:00:57;8.82;;;5.72;;
12869;SDS011;6503;48.572;13.460;2023-10-09T02:03:34;8.88;;;5.07;;
12869;SDS011;6503;48.572;13.460;2023-10-09T02:06:15;8.40;;;5.68;;
12869;SDS011;6503;48.572;13.460;2023-10-09T02:09:00;8.07;;;5.45;;
12869;SDS011;6503;48.572;13.460;2023-10-09T02:14:29;11.30;;;5.75;;
12869;SDS011;6503;48.572;13.460;2023-10-09T02:17:07;10.02;;;5.85;;
12869;SDS011;6503;48.572;13.460;2023-10-09T02:19:46;8.55;;;5.25;;
12869;SDS011;6503;48.572;13.460;2023-10-09T02:22:25;8.32;;;5.88;;
12869;SDS011;6503;48.572;13.460;2023-10-09T02:24:58;10.18;;;5.68;;
12869;SDS011;6503;48.572;13.460;2023-10-09T02:27:37;8.88;;;5.53;;
12869;SDS011;6503;48.572;13.460;2023-10-09T02:30:20;8.15;;;5.93;;
12869;SDS011;6503;48.572;13.460;2023-10-09T02:32:59;9.98;;;6.60;;
12869;SDS011;6503;48.572;13.460;2023-10-09T02:38:13;7.00;;;5.65;;
12869;SDS011;6503;48.572;13.460;2023-10-09T02:40:42;8.20;;;5.32;;
12869;SDS011;6503;48.572;13.460;2023-10-09T02:43:26;10.50;;;6.25;;
12869;SDS011;6503;48.572;13.460;2023-10-09T02:46:14;8.02;;;5.65;;
12869;SDS011;6503;48.572;13.460;2023-10-09T02:48:54;9.57;;;5.75;;
12869;SDS011;6503;48.572;13.460;2023-10-09T02:51:39;8.63;;;6.18;;
12869;SDS011;6503;48.572;13.460;2023-10-09T02:54:18;7.38;;;5.50;;
12869;SDS011;6503;48.572;13.460;2023-10-09T02:56:58;9.38;;;5.95;;
12869;SDS011;6503;48.572;13.460;2023-10-09T02:59:46;8.90;;;6.05;;
12869;SDS011;6503;48.572;13.460;2023-10-09T03:02:25;9.70;;;5.68;;
12869;SDS011;6503;48.572;13.460;2023-10-09T03:05:11;9.07;;;5.80;;
12869;SDS011;6503;48.572;13.460;2023-10-09T03:07:52;10.20;;;6.15;;
12869;SDS011;6503;48.572;13.460;2023-10-09T03:10:26;8.95;;;6.28;;
12869;SDS011;6503;48.572;13.460;2023-10-09T03:12:54;8.32;;;5.72;;
12869;SDS011;6503;48.572;13.460;2023-10-09T03:15:29;9.15;;;5.88;;
12869;SDS011;6503;48.572;13.460;2023-10-09T03:18:09;11.05;;;6.35;;
12869;SDS011;6503;48.572;13.460;2023-10-09T03:20:48;12.43;;;6.43;;
12869;SDS011;6503;48.572;13.460;2023-10-09T03:23:25;13.15;;;6.53;;
12869;SDS011;6503;48.572;13.460;2023-10-09T03:25:59;9.68;;;5.95;;
12869;SDS011;6503;48.572;13.460;2023-10-09T03:28:28;10.27;;;6.57;;
12869;SDS011;6503;48.572;13.460;2023-10-09T03:31:09;12.23;;;6.47;;
12869;SDS011;6503;48.572;13.460;2023-10-09T03:33:38;10.88;;;7.53;;
12869;SDS011;6503;48.572;13.460;2023-10-09T03:36:06;10.07;;;7.28;;
12869;SDS011;6503;48.572;13.460;2023-10-09T03:38:34;11.27;;;7.15;;
12869;SDS011;6503;48.572;13.460;2023-10-09T03:41:04;8.93;;;7.22;;
12869;SDS011;6503;48.572;13.460;2023-10-09T03:43:32;9.80;;;6.43;;
12869;SDS011;6503;48.572;13.460;2023-10-09T03:46:04;10.60;;;6.88;;
12869;SDS011;6503;48.572;13.460;2023-10-09T03:48:48;12.02;;;6.95;;
12869;SDS011;6503;48.572;13.460;2023-10-09T03:51:16;10.63;;;6.55;;
12869;SDS011;6503;48.572;13.460;2023-10-09T03:53:47;10.68;;;6.25;;
12869;SDS011;6503;48.572;13.460;2023-10-09T03:56:15;9.85;;;6.60;;
12869;SDS011;6503;48.572;13.460;2023-10-09T03:58:44;9.50;;;6.30;;
12869;SDS011;6503;48.572;13.460;2023-10-09T04:01:12;10.30;;;6.97;;
12869;SDS011;6503;48.572;13.460;2023-10-09T04:03:48;9.30;;;6.45;;
12869;SDS011;6503;48.572;13.460;2023-10-09T04:06:20;11.10;;;6.80;;
12869;SDS011;6503;48.572;13.460;2023-10-09T04:08:48;10.02;;;6.47;;
12869;SDS011;6503;48.572;13.460;2023-10-09T04:11:17;9.10;;;6.65;;
12869;SDS011;6503;48.572;13.460;2023-10-09T04:13:48;9.60;;;6.78;;
12869;SDS011;6503;48.572;13.460;2023-10-09T04:16:17;10.23;;;6.53;;
12869;SDS011;6503;48.572;13.460;2023-10-09T04:19:01;8.75;;;6.22;;
12869;SDS011;6503;48.572;13.460;2023-10-09T04:21:36;10.95;;;7.07;;
12869;SDS011;6503;48.572;13.460;2023-10-09T04:24:04;9.05;;;6.93;;
12869;SDS011;6503;48.572;13.460;2023-10-09T04:26:49;11.25;;;6.78;;
12869;SDS011;6503;48.572;13.460;2023-10-09T04:29:21;11.27;;;6.82;;
12869;SDS011;6503;48.572;13.460;2023-10-09T04:31:52;10.93;;;7.15;;
12869;SDS011;6503;48.572;13.460;2023-10-09T04:34:23;9.73;;;6.63;;
12869;SDS011;6503;48.572;13.460;2023-10-09T04:37:00;11.02;;;7.35;;
12869;SDS011;6503;48.572;13.460;2023-10-09T04:39:45;8.60;;;6.72;;
12869;SDS011;6503;48.572;13.460;2023-10-09T04:42:13;12.68;;;7.30;;
12869;SDS011;6503;48.572;13.460;2023-10-09T04:45:01;11.13;;;6.85;;
12869;SDS011;6503;48.572;13.460;2023-10-09T04:47:46;11.00;;;7.70;;
12869;SDS011;6503;48.572;13.460;2023-10-09T04:50:25;9.88;;;7.40;;
12869;SDS011;6503;48.572;13.460;2023-10-09T04:53:15;12.20;;;7.75;;
12869;SDS011;6503;48.572;13.460;2023-10-09T04:55:49;10.48;;;7.20;;
12869;SDS011;6503;48.572;13.460;2023-10-09T04:58:29;11.35;;;7.40;;
12869;SDS011;6503;48.572;13.460;2023-10-09T05:00:58;11.57;;;7.40;;
12869;SDS011;6503;48.572;13.460;2023-10-09T05:03:29;10.80;;;6.72;;
12869;SDS011;6503;48.572;13.460;2023-10-09T05:06:15;12.52;;;7.05;;
12869;SDS011;6503;48.572;13.460;2023-10-09T05:08:47;10.48;;;7.07;;
12869;SDS011;6503;48.572;13.460;2023-10-09T05:14:17;10.02;;;6.90;;
12869;SDS011;6503;48.572;13.460;2023-10-09T05:16:52;10.70;;;6.53;;
12869;SDS011;6503;48.572;13.460;2023-10-09T05:19:26;11.02;;;7.25;;
12869;SDS011;6503;48.572;13.460;2023-10-09T05:22:21;11.38;;;7.13;;
12869;SDS011;6503;48.572;13.460;2023-10-09T05:25:11;12.32;;;7.72;;
12869;SDS011;6503;48.572;13.460;2023-10-09T05:28:02;11.05;;;8.07;;
12869;SDS011;6503;48.572;13.460;2023-10-09T05:30:49;13.50;;;7.82;;
12869;SDS011;6503;48.572;13.460;2023-10-09T05:33:27;10.98;;;7.47;;
12869;SDS011;6503;48.572;13.460;2023-10-09T05:36:00;10.40;;;7.72;;
12869;SDS011;6503;48.572;13.460;2023-10-09T05:41:44;16.55;;;10.25;;
12869;SDS011;6503;48.572;13.460;2023-10-09T05:44:26;14.32;;;8.98;;
12869;SDS011;6503;48.572;13.460;2023-10-09T05:47:11;16.80;;;10.55;;
12869;SDS011;6503;48.572;13.460;2023-10-09T05:50:07;16.45;;;10.32;;
12869;SDS011;6503;48.572;13.460;2023-10-09T05:52:58;13.15;;;8.23;;
12869;SDS011;6503;48.572;13.460;2023-10-09T05:55:42;10.88;;;8.27;;
12869;SDS011;6503;48.572;13.460;2023-10-09T05:58:30;10.77;;;7.13;;
12869;SDS011;6503;48.572;13.460;2023-10-09T06:01:15;10.30;;;7.35;;
12869;SDS011;6503;48.572;13.460;2023-10-09T06:07:00;13.32;;;7.80;;
12869;SDS011;6503;48.572;13.460;2023-10-09T06:09:37;12.88;;;7.32;;
12869;SDS011;6503;48.572;13.460;2023-10-09T06:12:21;11.38;;;8.02;;
12869;SDS011;6503;48.572;13.460;2023-10-09T06:15:37;13.52;;;7.95;;
12869;SDS011;6503;48.572;13.460;2023-10-09T06:18:37;8.93;;;7.00;;
12869;SDS011;6503;48.572;13.460;2023-10-09T06:21:06;11.88;;;8.20;;
12869;SDS011;6503;48.572;13.460;2023-10-09T06:23:56;12.75;;;7.95;;
12869;SDS011;6503;48.572;13.460;2023-10-09T06:26:35;10.45;;;6.80;;
12869;SDS011;6503;48.572;13.460;2023-10-09T06:29:02;10.07;;;7.43;;
12869;SDS011;6503;48.572;13.460;2023-10-09T06:31:57;10.65;;;7.32;;
12869;SDS011;6503;48.572;13.460;2023-10-09T06:34:30;10.48;;;6.78;;
12869;SDS011;6503;48.572;13.460;2023-10-09T06:37:00;12.82;;;7.15;;
12869;SDS011;6503;48.572;13.460;2023-10-09T06:39:34;8.90;;;7.00;;
12869;SDS011;6503;48.572;13.460;2023-10-09T06:42:34;12.35;;;7.78;;
12869;SDS011;6503;48.572;13.460;2023-10-09T06:45:09;12.27;;;7.20;;
12869;SDS011;6503;48.572;13.460;2023-10-09T06:47:42;12.25;;;7.40;;
12869;SDS011;6503;48.572;13.460;2023-10-09T06:50:18;10.18;;;6.95;;
12869;SDS011;6503;48.572;13.460;2023-10-09T06:53:14;15.90;;;6.75;;
12869;SDS011;6503;48.572;13.460;2023-10-09T06:55:50;11.77;;;6.93;;
12869;SDS011;6503;48.572;13.460;2023-10-09T06:58:18;10.35;;;7.80;;
12869;SDS011;6503;48.572;13.460;2023-10-09T07:00:48;9.55;;;6.70;;
12869;SDS011;6503;48.572;13.460;2023-10-09T07:03:43;9.43;;;6.38;;
12869;SDS011;6503;48.572;13.460;2023-10-09T07:06:18;12.90;;;7.32;;
12869;SDS011;6503;48.572;13.460;2023-10-09T07:09:14;11.43;;;7.13;;
12869;SDS011;6503;48.572;13.460;2023-10-09T07:15:15;9.98;;;7.07;;
12869;SDS011;6503;48.572;13.460;2023-10-09T07:18:05;11.75;;;7.45;;
12869;SDS011;6503;48.572;13.460;2023-10-09T07:20:52;8.43;;;6.75;;
12869;SDS011;6503;48.572;13.460;2023-10-09T07:23:43;12.43;;;7.57;;
12869;SDS011;6503;48.572;13.460;2023-10-09T07:26:28;12.63;;;6.82;;
12869;SDS011;6503;48.572;13.460;2023-10-09T07:29:13;10.90;;;6.85;;
12869;SDS011;6503;48.572;13.460;2023-10-09T07:31:49;10.27;;;6.82;;
12869;SDS011;6503;48.572;13.460;2023-10-09T07:34:37;13.00;;;7.32;;
12869;SDS011;6503;48.572;13.460;2023-10-09T07:37:31;12.02;;;7.55;;
12869;SDS011;6503;48.572;13.460;2023-10-09T07:40:03;10.55;;;7.07;;
12869;SDS011;6503;48.572;13.460;2023-10-09T07:42:57;8.80;;;7.20;;
12869;SDS011;6503;48.572;13.460;2023-10-09T07:45:44;11.70;;;7.68;;
12869;SDS011;6503;48.572;13.460;2023-10-09T07:48:56;10.02;;;7.28;;
12869;SDS011;6503;48.572;13.460;2023-10-09T07:51:34;11.85;;;7.10;;
12869;SDS011;6503;48.572;13.460;2023-10-09T07:54:09;10.85;;;6.68;;
12869;SDS011;6503;48.572;13.460;2023-10-09T07:56:39;9.63;;;6.50;;
12869;SDS011;6503;48.572;13.460;2023-10-09T07:59:10;10.43;;;7.43;;
12869;SDS011;6503;48.572;13.460;2023-10-09T08:02:17;9.95;;;6.75;;
12869;SDS011;6503;48.572;13.460;2023-10-09T08:08:28;10.77;;;6.63;;
12869;SDS011;6503;48.572;13.460;2023-10-09T08:11:28;10.93;;;6.63;;
12869;SDS011;6503;48.572;13.460;2023-10-09T08:14:25;11.05;;;6.45;;
12869;SDS011;6503;48.572;13.460;2023-10-09T08:17:13;10.85;;;6.47;;
12869;SDS011;6503;48.572;13.460;2023-10-09T08:19:56;10.30;;;6.25;;
12869;SDS011;6503;48.572;13.460;2023-10-09T08:22:36;9.75;;;5.90;;
12869;SDS011;6503;48.572;13.460;2023-10-09T08:25:09;9.23;;;5.80;;
12869;SDS011;6503;48.572;13.460;2023-10-09T08:27:53;8.85;;;5.72;;
12869;SDS011;6503;48.572;13.460;2023-10-09T08:30:20;10.48;;;6.00;;
12869;SDS011;6503;48.572;13.460;2023-10-09T08:33:14;13.73;;;7.47;;
12869;SDS011;6503;48.572;13.460;2023-10-09T08:36:00;9.90;;;6.40;;
12869;SDS011;6503;48.572;13.460;2023-10-09T08:38:34;9.07;;;5.50;;
12869;SDS011;6503;48.572;13.460;2023-10-09T08:41:10;12.63;;;6.10;;
12869;SDS011;6503;48.572;13.460;2023-10-09T08:43:49;12.15;;;6.75;;
12869;SDS011;6503;48.572;13.460;2023-10-09T08:46:29;29.23;;;14.90;;
12869;SDS011;6503;48.572;13.460;2023-10-09T08:49:24;11.15;;;6.03;;
12869;SDS011;6503;48.572;13.460;2023-10-09T08:51:58;9.23;;;6.20;;
12869;SDS011;6503;48.572;13.460;2023-10-09T09:03:58;9.68;;;6.00;;
12869;SDS011;6503;48.572;13.460;2023-10-09T09:06:35;11.07;;;7.50;;
12869;SDS011;6503;48.572;13.460;2023-10-09T09:09:10;9.25;;;6.22;;
12869;SDS011;6503;48.572;13.460;2023-10-09T09:11:49;10.55;;;6.00;;
12869;SDS011;6503;48.572;13.460;2023-10-09T09:14:17;18.60;;;12.75;;
12869;SDS011;6503;48.572;13.460;2023-10-09T09:16:47;11.10;;;5.70;;
12869;SDS011;6503;48.572;13.460;2023-10-09T09:19:17;9.95;;;6.32;;
12869;SDS011;6503;48.572;13.460;2023-10-09T09:21:49;9.88;;;6.03;;
12869;SDS011;6503;48.572;13.460;2023-10-09T09:24:36;12.32;;;6.32;;
12869;SDS011;6503;48.572;13.460;2023-10-09T09:30:30;10.27;;;6.10;;
12869;SDS011;6503;48.572;13.460;2023-10-09T09:33:21;10.88;;;6.43;;
12869;SDS011;6503;48.572;13.460;2023-10-09T09:38:46;11.38;;;6.20;;
12869;SDS011;6503;48.572;13.460;2023-10-09T09:43:50;10.68;;;5.65;;
12869;SDS011;6503;48.572;13.460;2023-10-09T09:46:21;9.55;;;6.13;;
12869;SDS011;6503;48.572;13.460;2023-10-09T09:48:59;9.82;;;6.05;;
12869;SDS011;6503;48.572;13.460;2023-10-09T09:51:32;13.18;;;5.78;;
12869;SDS011;6503;48.572;13.460;2023-10-09T09:54:08;11.03;;;6.73;;
12869;SDS011;6503;48.572;13.460;2023-10-09T09:56:42;13.23;;;6.40;;
12869;SDS011;6503;48.572;13.460;2023-10-09T09:59:19;16.35;;;6.75;;
12869;SDS011;6503;48.572;13.460;2023-10-09T10:01:52;13.18;;;6.60;;
12869;SDS011;6503;48.572;13.460;2023-10-09T10:04:26;14.98;;;6.75;;
12869;SDS011;6503;48.572;13.460;2023-10-09T10:06:55;19.40;;;6.85;;
12869;SDS011;6503;48.572;13.460;2023-10-09T10:09:37;11.32;;;6.13;;
12869;SDS011;6503;48.572;13.460;2023-10-09T10:12:05;12.75;;;7.25;;
12869;SDS011;6503;48.572;13.460;2023-10-09T10:14:54;12.63;;;6.68;;
12869;SDS011;6503;48.572;13.460;2023-10-09T10:17:34;13.50;;;6.60;;
12869;SDS011;6503;48.572;13.460;2023-10-09T10:20:29;16.33;;;6.85;;
12869;SDS011;6503;48.572;13.460;2023-10-09T10:26:18;15.80;;;7.47;;
12869;SDS011;6503;48.572;13.460;2023-10-09T10:29:15;12.82;;;6.50;;
12869;SDS011;6503;48.572;13.460;2023-10-09T10:31:56;18.50;;;7.85;;
12869;SDS011;6503;48.572;13.460;2023-10-09T10:34:25;16.23;;;7.28;;
12869;SDS011;6503;48.572;13.460;2023-10-09T10:39:51;13.48;;;6.50;;
12869;SDS011;6503;48.572;13.460;2023-10-09T10:42:27;12.82;;;6.35;;
12869;SDS011;6503;48.572;13.460;2023-10-09T10:45:03;12.73;;;6.13;;
12869;SDS011;6503;48.572;13.460;2023-10-09T10:47:51;15.07;;;6.60;;
12869;SDS011;6503;48.572;13.460;2023-10-09T10:50:23;11.98;;;6.03;;
12869;SDS011;6503;48.572;13.460;2023-10-09T10:53:16;14.10;;;5.57;;
12869;SDS011;6503;48.572;13.460;2023-10-09T10:56:01;16.95;;;6.47;;
12869;SDS011;6503;48.572;13.460;2023-10-09T11:04:45;17.58;;;6.68;;
12869;SDS011;6503;48.572;13.460;2023-10-09T11:07:47;15.93;;;5.83;;
12869;SDS011;6503;48.572;13.460;2023-10-09T11:11:13;16.90;;;5.88;;
12869;SDS011;6503;48.572;13.460;2023-10-09T11:13:43;15.30;;;6.65;;
12869;SDS011;6503;48.572;13.460;2023-10-09T11:16:21;14.23;;;5.90;;
12869;SDS011;6503;48.572;13.460;2023-10-09T11:19:07;14.32;;;5.75;;
12869;SDS011;6503;48.572;13.460;2023-10-09T11:21:49;14.82;;;5.57;;
12869;SDS011;6503;48.572;13.460;2023-10-09T11:24:24;19.17;;;7.18;;
12869;SDS011;6503;48.572;13.460;2023-10-09T11:30:11;16.65;;;6.25;;
12869;SDS011;6503;48.572;13.460;2023-10-09T11:33:11;15.85;;;6.43;;
12869;SDS011;6503;48.572;13.460;2023-10-09T11:35:54;16.25;;;6.45;;
12869;SDS011;6503;48.572;13.460;2023-10-09T11:38:23;14.57;;;6.13;;
12869;SDS011;6503;48.572;13.460;2023-10-09T11:40:51;17.63;;;6.63;;
12869;SDS011;6503;48.572;13.460;2023-10-09T11:43:47;19.17;;;5.82;;
12869;SDS011;6503;48.572;13.460;2023-10-09T11:46:19;18.30;;;5.78;;
12869;SDS011;6503;48.572;13.460;2023-10-09T11:49:13;24.60;;;6.35;;
12869;SDS011;6503;48.572;13.460;2023-10-09T11:52:07;20.02;;;6.13;;
12869;SDS011;6503;48.572;13.460;2023-10-09T11:54:52;29.50;;;6.95;;
12869;SDS011;6503;48.572;13.460;2023-10-09T11:57:22;13.55;;;6.28;;
12869;SDS011;6503;48.572;13.460;2023-10-09T11:59:55;16.60;;;6.35;;
12869;SDS011;6503;48.572;13.460;2023-10-09T12:02:26;16.73;;;6.18;;
12869;SDS011;6503;48.572;13.460;2023-10-09T12:04:54;18.10;;;6.68;;
12869;SDS011;6503;48.572;13.460;2023-10-09T12:07:23;16.33;;;5.93;;
12869;SDS011;6503;48.572;13.460;2023-10-09T12:09:52;15.43;;;7.03;;
12869;SDS011;6503;48.572;13.460;2023-10-09T12:12:21;16.90;;;6.40;;
12869;SDS011;6503;48.572;13.460;2023-10-09T12:14:52;13.98;;;6.10;;
12869;SDS011;6503;48.572;13.460;2023-10-09T12:17:20;16.33;;;6.43;;
12869;SDS011;6503;48.572;13.460;2023-10-09T12:20:03;17.35;;;6.03;;
12869;SDS011;6503;48.572;13.460;2023-10-09T12:22:39;16.10;;;6.40;;
12869;SDS011;6503;48.572;13.460;2023-10-09T12:25:07;21.38;;;7.10;;
12869;SDS011;6503;48.572;13.460;2023-10-09T12:27:34;19.00;;;6.85;;
12869;SDS011;6503;48.572;13.460;2023-10-09T12:30:04;18.80;;;7.28;;
12869;SDS011;6503;48.572;13.460;2023-10-09T12:32:31;18.42;;;7.05;;
12869;SDS011;6503;48.572;13.460;2023-10-09T12:35:05;16.63;;;6.13;;
12869;SDS011;6503;48.572;13.460;2023-10-09T12:37:42;19.00;;;6.38;;
12869;SDS011;6503;48.572;13.460;2023-10-09T12:40:10;13.80;;;5.80;;
12869;SDS011;6503;48.572;13.460;2023-10-09T12:42:39;18.92;;;6.40;;
12869;SDS011;6503;48.572;13.460;2023-10-09T12:45:07;17.35;;;6.43;;
12869;SDS011;6503;48.572;13.460;2023-10-09T12:47:34;18.58;;;6.03;;
12869;SDS011;6503;48.572;13.460;2023-10-09T12:50:05;14.35;;;6.00;;
12869;SDS011;6503;48.572;13.460;2023-10-09T12:52:39;12.88;;;6.22;;
12869;SDS011;6503;48.572;13.460;2023-10-09T12:55:07;15.68;;;5.70;;
12869;SDS011;6503;48.572;13.460;2023-10-09T12:57:44;14.32;;;6.25;;
12869;SDS011;6503;48.572;13.460;2023-10-09T13:00:17;16.02;;;6.47;;
12869;SDS011;6503;48.572;13.460;2023-10-09T13:02:50;17.58;;;6.78;;
12869;SDS011;6503;48.572;13.460;2023-10-09T13:05:19;13.90;;;7.25;;
12869;SDS011;6503;48.572;13.460;2023-10-09T13:07:51;19.10;;;7.75;;
12869;SDS011;6503;48.572;13.460;2023-10-09T13:10:20;19.40;;;6.77;;
12869;SDS011;6503;48.572;13.460;2023-10-09T13:12:49;15.02;;;6.72;;
12869;SDS011;6503;48.572;13.460;2023-10-09T13:15:20;15.65;;;6.28;;
12869;SDS011;6503;48.572;13.460;2023-10-09T13:17:49;20.77;;;6.45;;
12869;SDS011;6503;48.572;13.460;2023-10-09T13:20:21;21.40;;;6.40;;
12869;SDS011;6503;48.572;13.460;2023-10-09T13:22:51;15.38;;;6.30;;
12869;SDS011;6503;48.572;13.460;2023-10-09T13:25:21;17.50;;;6.97;;
12869;SDS011;6503;48.572;13.460;2023-10-09T13:27:51;22.45;;;7.13;;
12869;SDS011;6503;48.572;13.460;2023-10-09T13:30:18;17.73;;;7.40;;
12869;SDS011;6503;48.572;13.460;2023-10-09T13:32:48;23.92;;;7.90;;
12869;SDS011;6503;48.572;13.460;2023-10-09T13:35:16;14.93;;;6.97;;
12869;SDS011;6503;48.572;13.460;2023-10-09T13:37:46;17.90;;;7.15;;
12869;SDS011;6503;48.572;13.460;2023-10-09T13:40:20;23.33;;;9.82;;
12869;SDS011;6503;48.572;13.460;2023-10-09T13:42:55;19.00;;;7.20;;
12869;SDS011;6503;48.572;13.460;2023-10-09T13:45:25;18.30;;;6.70;;
12869;SDS011;6503;48.572;13.460;2023-10-09T13:47:54;20.23;;;6.63;;
12869;SDS011;6503;48.572;13.460;2023-10-09T13:50:23;14.65;;;6.53;;
12869;SDS011;6503;48.572;13.460;2023-10-09T13:52:56;15.93;;;6.63;;
12869;SDS011;6503;48.572;13.460;2023-10-09T13:55:23;15.93;;;7.45;;
12869;SDS011;6503;48.572;13.460;2023-10-09T13:57:56;17.63;;;6.80;;
12869;SDS011;6503;48.572;13.460;2023-10-09T14:00:24;14.35;;;6.20;;
12869;SDS011;6503;48.572;13.460;2023-10-09T14:03:08;12.52;;;7.57;;
12869;SDS011;6503;48.572;13.460;2023-10-09T14:05:39;18.75;;;8.13;;
12869;SDS011;6503;48.572;13.460;2023-10-09T14:08:22;18.63;;;7.35;;
12869;SDS011;6503;48.572;13.460;2023-10-09T14:10:51;21.60;;;8.07;;
12869;SDS011;6503;48.572;13.460;2023-10-09T14:13:20;16.50;;;7.68;;
12869;SDS011;6503;48.572;13.460;2023-10-09T14:15:53;20.45;;;7.70;;
12869;SDS011;6503;48.572;13.460;2023-10-09T14:18:21;20.27;;;7.10;;
12869;SDS011;6503;48.572;13.460;2023-10-09T14:20:54;20.20;;;8.55;;
12869;SDS011;6503;48.572;13.460;2023-10-09T14:23:23;20.90;;;8.18;;
12869;SDS011;6503;48.572;13.460;2023-10-09T14:25:57;14.85;;;8.02;;
12869;SDS011;6503;48.572;13.460;2023-10-09T14:28:26;25.13;;;8.80;;
12869;SDS011;6503;48.572;13.460;2023-10-09T14:30:58;22.45;;;10.65;;
12869;SDS011;6503;48.572;13.460;2023-10-09T14:33:29;21.98;;;9.48;;
12869;SDS011;6503;48.572;13.460;2023-10-09T14:36:01;23.48;;;8.90;;
12869;SDS011;6503;48.572;13.460;2023-10-09T14:38:44;18.45;;;9.05;;
12869;SDS011;6503;48.572;13.460;2023-10-09T14:41:17;16.52;;;7.97;;
12869;SDS011;6503;48.572;13.460;2023-10-09T14:43:47;13.60;;;7.50;;
12869;SDS011;6503;48.572;13.460;2023-10-09T14:46:15;13.80;;;7.97;;
12869;SDS011;6503;48.572;13.460;2023-10-09T14:48:48;16.52;;;7.43;;
12869;SDS011;6503;48.572;13.460;2023-10-09T14:51:17;19.95;;;7.60;;
12869;SDS011;6503;48.572;13.460;2023-10-09T14:53:53;20.40;;;8.25;;
12869;SDS011;6503;48.572;13.460;2023-10-09T14:56:22;20.13;;;8.48;;
12869;SDS011;6503;48.572;13.460;2023-10-09T14:58:56;18.23;;;7.25;;
12869;SDS011;6503;48.572;13.460;2023-10-09T15:01:23;15.88;;;7.28;;
12869;SDS011;6503;48.572;13.460;2023-10-09T15:03:53;17.05;;;6.45;;
12869;SDS011;6503;48.572;13.460;2023-10-09T15:06:22;16.15;;;6.20;;
12869;SDS011;6503;48.572;13.460;2023-10-09T15:11:27;16.88;;;7.75;;
12869;SDS011;6503;48.572;13.460;2023-10-09T15:13:55;18.48;;;8.05;;
12869;SDS011;6503;48.572;13.460;2023-10-09T15:16:24;19.67;;;7.22;;
12869;SDS011;6503;48.572;13.460;2023-10-09T15:18:54;17.67;;;7.13;;
12869;SDS011;6503;48.572;13.460;2023-10-09T15:21:22;16.33;;;7.03;;
12869;SDS011;6503;48.572;13.460;2023-10-09T15:23:51;16.97;;;6.93;;
12869;SDS011;6503;48.572;13.460;2023-10-09T15:26:19;17.17;;;6.85;;
12869;SDS011;6503;48.572;13.460;2023-10-09T15:28:50;14.93;;;7.07;;
12869;SDS011;6503;48.572;13.460;2023-10-09T15:31:18;16.40;;;7.00;;
12869;SDS011;6503;48.572;13.460;2023-10-09T15:33:46;15.45;;;7.15;;
12869;SDS011;6503;48.572;13.460;2023-10-09T15:38:45;14.80;;;7.40;;
12869;SDS011;6503;48.572;13.460;2023-10-09T15:41:13;18.98;;;8.57;;
12869;SDS011;6503;48.572;13.460;2023-10-09T15:43:41;18.45;;;8.10;;
12869;SDS011;6503;48.572;13.460;2023-10-09T15:46:12;19.00;;;7.70;;
12869;SDS011;6503;48.572;13.460;2023-10-09T15:48:43;17.42;;;7.72;;
12869;SDS011;6503;48.572;13.460;2023-10-09T15:51:14;21.95;;;8.65;;
12869;SDS011;6503;48.572;13.460;2023-10-09T15:53:42;15.98;;;8.98;;
12869;SDS011;6503;48.572;13.460;2023-10-09T15:56:10;18.35;;;9.18;;
12869;SDS011;6503;48.572;13.460;2023-10-09T15:58:52;19.50;;;8.68;;
12869;SDS011;6503;48.572;13.460;2023-10-09T16:01:24;20.08;;;8.80;;
12869;SDS011;6503;48.572;13.460;2023-10-09T16:04:01;13.93;;;7.90;;
12869;SDS011;6503;48.572;13.460;2023-10-09T16:06:31;17.95;;;8.10;;
12869;SDS011;6503;48.572;13.460;2023-10-09T16:08:59;16.38;;;8.82;;
12869;SDS011;6503;48.572;13.460;2023-10-09T16:11:26;22.48;;;8.82;;
12869;SDS011;6503;48.572;13.460;2023-10-09T16:13:58;18.48;;;9.20;;
12869;SDS011;6503;48.572;13.460;2023-10-09T16:16:29;19.58;;;11.07;;
12869;SDS011;6503;48.572;13.460;2023-10-09T16:18:56;18.00;;;9.00;;
12869;SDS011;6503;48.572;13.460;2023-10-09T16:21:24;20.63;;;9.57;;
12869;SDS011;6503;48.572;13.460;2023-10-09T16:23:52;22.08;;;11.18;;
12869;SDS011;6503;48.572;13.460;2023-10-09T16:26:19;22.65;;;9.93;;
12869;SDS011;6503;48.572;13.460;2023-10-09T16:28:49;23.55;;;11.13;;
12869;SDS011;6503;48.572;13.460;2023-10-09T16:31:17;22.95;;;9.63;;
12869;SDS011;6503;48.572;13.460;2023-10-09T16:33:46;16.73;;;9.02;;
12869;SDS011;6503;48.572;13.460;2023-10-09T16:36:13;21.20;;;9.65;;
12869;SDS011;6503;48.572;13.460;2023-10-09T16:38:42;19.80;;;9.75;;
12869;SDS011;6503;48.572;13.460;2023-10-09T16:41:11;17.30;;;9.10;;